sensor_id;sensor_type;location;lat;lon;timestamp;temperature;humidity
4183;DHT22;2105;52.300;9.182;2022-07-23T00:00:09;14.00;99.90
4183;DHT22;2105;52.300;9.182;2022-07-23T00:02:36;14.00;99.90
4183;DHT22;2105;52.300;9.182;2022-07-23T00:05:04;13.90;99.90
4183;DHT22;2105;52.300;9.182;2022-07-23T00:07:31;13.90;99.90
4183;DHT22;2105;52.300;9.182;2022-07-23T00:09:58;13.80;99.90
4183;DHT22;2105;52.300;9.182;2022-07-23T00:12:25;13.80;99.90
4183;DHT22;2105;52.300;9.182;2022-07-23T00:14:52;13.70;99.90
4183;DHT22;2105;52.300;9.182;2022-07-23T00:17:19;13.70;99.90
4183;DHT22;2105;52.300;9.182;2022-07-23T00:19:46;13.60;99.90
4183;DHT22;2105;52.300;9.182;2022-07-23T00:22:14;13.60;99.90
4183;DHT22;2105;52.300;9.182;2022-07-23T00:24:41;13.50;99.90
4183;DHT22;2105;52.300;9.182;2022-07-23T00:27:08;13.50;99.90
4183;DHT22;2105;52.300;9.182;2022-07-23T00:29:34;13.40;99.90
4183;DHT22;2105;52.300;9.182;2022-07-23T00:32:01;13.30;99.90
4183;DHT22;2105;52.300;9.182;2022-07-23T00:34:28;13.40;99.90
4183;DHT22;2105;52.300;9.182;2022-07-23T00:36:54;13.40;99.90
4183;DHT22;2105;52.300;9.182;2022-07-23T00:39:22;13.30;99.90
4183;DHT22;2105;52.300;9.182;2022-07-23T00:41:50;13.50;99.90
4183;DHT22;2105;52.300;9.182;2022-07-23T00:44:19;13.40;99.90
4183;DHT22;2105;52.300;9.182;2022-07-23T00:46:48;13.30;99.90
4183;DHT22;2105;52.300;9.182;2022-07-23T00:49:15;13.10;99.90
4183;DHT22;2105;52.300;9.182;2022-07-23T00:51:42;13.10;99.90
4183;DHT22;2105;52.300;9.182;2022-07-23T00:54:09;13.20;99.90
4183;DHT22;2105;52.300;9.182;2022-07-23T00:56:37;13.20;99.90
4183;DHT22;2105;52.300;9.182;2022-07-23T00:59:05;13.10;99.90
4183;DHT22;2105;52.300;9.182;2022-07-23T01:01:32;13.10;99.90
4183;DHT22;2105;52.300;9.182;2022-07-23T01:03:59;13.10;99.90
4183;DHT22;2105;52.300;9.182;2022-07-23T01:06:27;13.00;99.90
4183;DHT22;2105;52.300;9.182;2022-07-23T01:08:54;13.10;99.90
4183;DHT22;2105;52.300;9.182;2022-07-23T01:11:22;13.10;99.90
4183;DHT22;2105;52.300;9.182;2022-07-23T01:13:51;13.10;99.90
4183;DHT22;2105;52.300;9.182;2022-07-23T01:16:17;13.10;99.90
4183;DHT22;2105;52.300;9.182;2022-07-23T01:18:44;13.10;99.90
4183;DHT22;2105;52.300;9.182;2022-07-23T01:21:11;13.10;99.90
4183;DHT22;2105;52.300;9.182;2022-07-23T01:23:40;13.10;99.90
4183;DHT22;2105;52.300;9.182;2022-07-23T01:26:07;13.20;99.90
4183;DHT22;2105;52.300;9.182;2022-07-23T01:28:34;13.20;99.90
4183;DHT22;2105;52.300;9.182;2022-07-23T01:31:00;13.20;99.90
4183;DHT22;2105;52.300;9.182;2022-07-23T01:33:27;13.30;99.90
4183;DHT22;2105;52.300;9.182;2022-07-23T01:35:54;13.30;99.90
4183;DHT22;2105;52.300;9.182;2022-07-23T01:38:20;13.40;99.90
4183;DHT22;2105;52.300;9.182;2022-07-23T01:40:48;13.50;99.90
4183;DHT22;2105;52.300;9.182;2022-07-23T01:43:15;13.70;99.90
4183;DHT22;2105;52.300;9.182;2022-07-23T01:45:42;13.60;99.90
4183;DHT22;2105;52.300;9.182;2022-07-23T01:48:09;13.60;99.90
4183;DHT22;2105;52.300;9.182;2022-07-23T01:50:36;13.70;99.90
4183;DHT22;2105;52.300;9.182;2022-07-23T01:53:03;13.70;99.90
4183;DHT22;2105;52.300;9.182;2022-07-23T01:55:29;13.70;99.90
4183;DHT22;2105;52.300;9.182;2022-07-23T01:57:57;13.80;99.90
4183;DHT22;2105;52.300;9.182;2022-07-23T02:00:24;13.90;99.90
4183;DHT22;2105;52.300;9.182;2022-07-23T02:02:51;14.00;99.90
4183;DHT22;2105;52.300;9.182;2022-07-23T02:05:17;14.10;99.90
4183;DHT22;2105;52.300;9.182;2022-07-23T02:07:44;14.00;99.90
4183;DHT22;2105;52.300;9.182;2022-07-23T02:10:11;14.00;99.90
4183;DHT22;2105;52.300;9.182;2022-07-23T02:12:37;14.00;99.90
4183;DHT22;2105;52.300;9.182;2022-07-23T02:15:07;14.10;99.90
4183;DHT22;2105;52.300;9.182;2022-07-23T02:17:34;14.20;99.90
4183;DHT22;2105;52.300;9.182;2022-07-23T02:20:00;14.30;99.90
4183;DHT22;2105;52.300;9.182;2022-07-23T02:22:27;14.40;99.90
4183;DHT22;2105;52.300;9.182;2022-07-23T02:24:54;14.40;99.90
4183;DHT22;2105;52.300;9.182;2022-07-23T02:27:21;14.50;99.90
4183;DHT22;2105;52.300;9.182;2022-07-23T02:29:48;14.50;99.90
4183;DHT22;2105;52.300;9.182;2022-07-23T02:32:16;14.60;99.90
4183;DHT22;2105;52.300;9.182;2022-07-23T02:34:43;14.70;99.90
4183;DHT22;2105;52.300;9.182;2022-07-23T02:37:10;14.70;99.90
4183;DHT22;2105;52.300;9.182;2022-07-23T02:39:36;14.70;99.90
4183;DHT22;2105;52.300;9.182;2022-07-23T02:42:03;14.70;99.90
4183;DHT22;2105;52.300;9.182;2022-07-23T02:44:30;14.70;99.90
4183;DHT22;2105;52.300;9.182;2022-07-23T02:46:57;14.70;99.90
4183;DHT22;2105;52.300;9.182;2022-07-23T02:49:25;14.70;99.90
4183;DHT22;2105;52.300;9.182;2022-07-23T02:51:51;14.60;99.90
4183;DHT22;2105;52.300;9.182;2022-07-23T02:54:18;14.50;99.90
4183;DHT22;2105;52.300;9.182;2022-07-23T02:56:45;14.50;99.90
4183;DHT22;2105;52.300;9.182;2022-07-23T02:59:12;14.50;99.90
4183;DHT22;2105;52.300;9.182;2022-07-23T03:01:38;14.50;99.90
4183;DHT22;2105;52.300;9.182;2022-07-23T03:04:05;14.50;99.90
4183;DHT22;2105;52.300;9.182;2022-07-23T03:06:33;14.50;99.90
4183;DHT22;2105;52.300;9.182;2022-07-23T03:09:00;14.50;99.90
4183;DHT22;2105;52.300;9.182;2022-07-23T03:11:26;14.40;99.90
4183;DHT22;2105;52.300;9.182;2022-07-23T03:13:53;14.40;99.90
4183;DHT22;2105;52.300;9.182;2022-07-23T03:16:20;14.30;99.90
4183;DHT22;2105;52.300;9.182;2022-07-23T03:18:46;14.30;99.90
4183;DHT22;2105;52.300;9.182;2022-07-23T03:21:13;14.30;99.90
4183;DHT22;2105;52.300;9.182;2022-07-23T03:23:41;14.40;99.90
4183;DHT22;2105;52.300;9.182;2022-07-23T03:26:08;14.40;99.90
4183;DHT22;2105;52.300;9.182;2022-07-23T03:28:34;14.30;99.90
4183;DHT22;2105;52.300;9.182;2022-07-23T03:31:01;14.40;99.90
4183;DHT22;2105;52.300;9.182;2022-07-23T03:33:28;14.30;99.90
4183;DHT22;2105;52.300;9.182;2022-07-23T03:35:54;14.40;99.90
4183;DHT22;2105;52.300;9.182;2022-07-23T03:38:21;14.40;99.90
4183;DHT22;2105;52.300;9.182;2022-07-23T03:40:49;14.50;99.90
4183;DHT22;2105;52.300;9.182;2022-07-23T03:43:16;14.50;99.90
4183;DHT22;2105;52.300;9.182;2022-07-23T03:45:42;14.50;99.90
4183;DHT22;2105;52.300;9.182;2022-07-23T03:48:09;14.40;99.90
4183;DHT22;2105;52.300;9.182;2022-07-23T03:50:36;14.40;99.90
4183;DHT22;2105;52.300;9.182;2022-07-23T03:53:03;14.50;99.90
4183;DHT22;2105;52.300;9.182;2022-07-23T03:55:30;14.50;99.90
4183;DHT22;2105;52.300;9.182;2022-07-23T03:57:58;14.50;99.90
4183;DHT22;2105;52.300;9.182;2022-07-23T04:00:24;14.50;99.90
4183;DHT22;2105;52.300;9.182;2022-07-23T04:02:51;14.50;99.90
4183;DHT22;2105;52.300;9.182;2022-07-23T04:05:18;14.50;99.90
4183;DHT22;2105;52.300;9.182;2022-07-23T04:07:45;14.50;99.90
4183;DHT22;2105;52.300;9.182;2022-07-23T04:10:11;14.40;99.90
4183;DHT22;2105;52.300;9.182;2022-07-23T04:12:38;14.30;99.90
4183;DHT22;2105;52.300;9.182;2022-07-23T04:15:07;14.30;99.90
4183;DHT22;2105;52.300;9.182;2022-07-23T04:17:34;14.20;99.90
4183;DHT22;2105;52.300;9.182;2022-07-23T04:20:01;14.20;99.90
4183;DHT22;2105;52.300;9.182;2022-07-23T04:22:27;14.20;99.90
4183;DHT22;2105;52.300;9.182;2022-07-23T04:24:54;14.20;99.90
4183;DHT22;2105;52.300;9.182;2022-07-23T04:27:21;14.30;99.90
4183;DHT22;2105;52.300;9.182;2022-07-23T04:29:47;14.20;99.90
4183;DHT22;2105;52.300;9.182;2022-07-23T04:32:15;14.30;99.90
4183;DHT22;2105;52.300;9.182;2022-07-23T04:34:42;14.30;99.90
4183;DHT22;2105;52.300;9.182;2022-07-23T04:37:09;14.30;99.90
4183;DHT22;2105;52.300;9.182;2022-07-23T04:39:36;14.40;99.90
4183;DHT22;2105;52.300;9.182;2022-07-23T04:42:02;14.40;99.90
4183;DHT22;2105;52.300;9.182;2022-07-23T04:44:29;14.40;99.90
4183;DHT22;2105;52.300;9.182;2022-07-23T04:46:56;14.30;99.90
4183;DHT22;2105;52.300;9.182;2022-07-23T04:49:24;14.30;99.90
4183;DHT22;2105;52.300;9.182;2022-07-23T04:51:51;14.30;99.90
4183;DHT22;2105;52.300;9.182;2022-07-23T04:54:17;14.30;99.90
4183;DHT22;2105;52.300;9.182;2022-07-23T04:56:44;14.30;99.90
4183;DHT22;2105;52.300;9.182;2022-07-23T04:59:11;14.30;99.90
4183;DHT22;2105;52.300;9.182;2022-07-23T05:01:37;14.40;99.90
4183;DHT22;2105;52.300;9.182;2022-07-23T05:04:04;14.50;99.90
4183;DHT22;2105;52.300;9.182;2022-07-23T05:06:32;14.60;99.90
4183;DHT22;2105;52.300;9.182;2022-07-23T05:08:59;14.80;99.90
4183;DHT22;2105;52.300;9.182;2022-07-23T05:11:25;15.10;99.90
4183;DHT22;2105;52.300;9.182;2022-07-23T05:13:52;15.30;99.90
4183;DHT22;2105;52.300;9.182;2022-07-23T05:16:19;15.50;99.90
4183;DHT22;2105;52.300;9.182;2022-07-23T05:18:45;15.50;99.90
4183;DHT22;2105;52.300;9.182;2022-07-23T05:21:12;15.70;99.90
4183;DHT22;2105;52.300;9.182;2022-07-23T05:23:40;15.70;99.90
4183;DHT22;2105;52.300;9.182;2022-07-23T05:26:07;15.90;99.90
4183;DHT22;2105;52.300;9.182;2022-07-23T05:28:33;15.90;99.90
4183;DHT22;2105;52.300;9.182;2022-07-23T05:31:00;15.90;99.90
4183;DHT22;2105;52.300;9.182;2022-07-23T05:33:28;16.10;99.90
4183;DHT22;2105;52.300;9.182;2022-07-23T05:36:00;16.10;99.90
4183;DHT22;2105;52.300;9.182;2022-07-23T05:38:26;16.10;99.90
4183;DHT22;2105;52.300;9.182;2022-07-23T05:40:55;16.10;99.90
4183;DHT22;2105;52.300;9.182;2022-07-23T05:43:21;16.30;99.90
4183;DHT22;2105;52.300;9.182;2022-07-23T05:45:48;16.40;99.90
4183;DHT22;2105;52.300;9.182;2022-07-23T05:48:14;16.60;99.90
4183;DHT22;2105;52.300;9.182;2022-07-23T05:50:41;16.70;99.90
4183;DHT22;2105;52.300;9.182;2022-07-23T05:53:08;16.70;99.90
4183;DHT22;2105;52.300;9.182;2022-07-23T05:55:35;16.70;99.90
4183;DHT22;2105;52.300;9.182;2022-07-23T05:58:03;16.80;99.90
4183;DHT22;2105;52.300;9.182;2022-07-23T06:00:30;16.80;99.90
4183;DHT22;2105;52.300;9.182;2022-07-23T06:02:57;16.80;99.90
4183;DHT22;2105;52.300;9.182;2022-07-23T06:05:24;16.80;99.90
4183;DHT22;2105;52.300;9.182;2022-07-23T06:07:51;16.80;99.90
4183;DHT22;2105;52.300;9.182;2022-07-23T06:10:18;16.80;99.90
4183;DHT22;2105;52.300;9.182;2022-07-23T06:12:45;16.90;99.90
4183;DHT22;2105;52.300;9.182;2022-07-23T06:15:14;17.00;99.90
4183;DHT22;2105;52.300;9.182;2022-07-23T06:17:40;17.10;99.90
4183;DHT22;2105;52.300;9.182;2022-07-23T06:20:08;17.00;18.10
4183;DHT22;2105;52.300;9.182;2022-07-23T06:22:35;17.00;99.90
4183;DHT22;2105;52.300;9.182;2022-07-23T06:25:02;17.00;50.00
4183;DHT22;2105;52.300;9.182;2022-07-23T06:27:29;17.10;1.00
4183;DHT22;2105;52.300;9.182;2022-07-23T06:29:56;16.90;19.20
4183;DHT22;2105;52.300;9.182;2022-07-23T06:32:24;16.90;99.90
4183;DHT22;2105;52.300;9.182;2022-07-23T06:34:50;17.10;99.90
4183;DHT22;2105;52.300;9.182;2022-07-23T06:37:17;17.30;96.20
4183;DHT22;2105;52.300;9.182;2022-07-23T06:39:44;17.40;5.60
4183;DHT22;2105;52.300;9.182;2022-07-23T06:42:10;17.30;37.90
4183;DHT22;2105;52.300;9.182;2022-07-23T06:44:37;17.50;99.90
4183;DHT22;2105;52.300;9.182;2022-07-23T06:47:04;17.50;27.50
4183;DHT22;2105;52.300;9.182;2022-07-23T06:49:32;17.50;57.00
4183;DHT22;2105;52.300;9.182;2022-07-23T06:51:59;17.80;35.20
4183;DHT22;2105;52.300;9.182;2022-07-23T06:54:26;18.00;1.00
4183;DHT22;2105;52.300;9.182;2022-07-23T06:56:52;18.20;1.00
4183;DHT22;2105;52.300;9.182;2022-07-23T06:59:19;18.40;1.00
4183;DHT22;2105;52.300;9.182;2022-07-23T07:01:46;18.70;99.90
4183;DHT22;2105;52.300;9.182;2022-07-23T07:04:12;18.90;99.90
4183;DHT22;2105;52.300;9.182;2022-07-23T07:06:40;19.10;1.00
4183;DHT22;2105;52.300;9.182;2022-07-23T07:09:07;19.40;1.00
4183;DHT22;2105;52.300;9.182;2022-07-23T07:11:34;19.80;99.90
4183;DHT22;2105;52.300;9.182;2022-07-23T07:14:00;19.80;1.00
4183;DHT22;2105;52.300;9.182;2022-07-23T07:16:27;19.60;1.00
4183;DHT22;2105;52.300;9.182;2022-07-23T07:18:54;20.10;15.60
4183;DHT22;2105;52.300;9.182;2022-07-23T07:21:20;20.30;1.00
4183;DHT22;2105;52.300;9.182;2022-07-23T07:23:48;19.90;1.00
4183;DHT22;2105;52.300;9.182;2022-07-23T07:26:15;19.60;99.90
4183;DHT22;2105;52.300;9.182;2022-07-23T07:28:42;20.40;99.90
4183;DHT22;2105;52.300;9.182;2022-07-23T07:31:08;20.70;1.00
4183;DHT22;2105;52.300;9.182;2022-07-23T07:33:35;20.00;99.90
4183;DHT22;2105;52.300;9.182;2022-07-23T07:36:02;19.80;1.00
4183;DHT22;2105;52.300;9.182;2022-07-23T07:38:29;19.50;1.00
4183;DHT22;2105;52.300;9.182;2022-07-23T07:40:57;19.10;1.00
4183;DHT22;2105;52.300;9.182;2022-07-23T07:43:24;18.80;1.00
4183;DHT22;2105;52.300;9.182;2022-07-23T07:45:50;18.50;1.00
4183;DHT22;2105;52.300;9.182;2022-07-23T07:48:17;18.40;99.90
4183;DHT22;2105;52.300;9.182;2022-07-23T07:50:44;19.20;1.00
4183;DHT22;2105;52.300;9.182;2022-07-23T07:53:10;19.60;1.00
4183;DHT22;2105;52.300;9.182;2022-07-23T07:55:37;20.20;99.90
4183;DHT22;2105;52.300;9.182;2022-07-23T07:58:05;19.90;1.00
4183;DHT22;2105;52.300;9.182;2022-07-23T08:00:32;19.50;99.90
4183;DHT22;2105;52.300;9.182;2022-07-23T08:02:59;19.30;1.00
4183;DHT22;2105;52.300;9.182;2022-07-23T08:05:27;19.40;99.90
4183;DHT22;2105;52.300;9.182;2022-07-23T08:07:56;19.20;99.90
4183;DHT22;2105;52.300;9.182;2022-07-23T08:10:23;19.00;1.00
4183;DHT22;2105;52.300;9.182;2022-07-23T08:12:51;18.80;18.70
4183;DHT22;2105;52.300;9.182;2022-07-23T08:15:21;18.70;1.00
4183;DHT22;2105;52.300;9.182;2022-07-23T08:17:48;19.00;1.00
4183;DHT22;2105;52.300;9.182;2022-07-23T08:20:17;19.30;1.00
4183;DHT22;2105;52.300;9.182;2022-07-23T08:22:45;19.50;99.90
4183;DHT22;2105;52.300;9.182;2022-07-23T08:25:12;19.80;1.00
4183;DHT22;2105;52.300;9.182;2022-07-23T08:27:39;20.00;1.00
4183;DHT22;2105;52.300;9.182;2022-07-23T08:30:06;20.00;1.00
4183;DHT22;2105;52.300;9.182;2022-07-23T08:32:47;20.10;1.00
4183;DHT22;2105;52.300;9.182;2022-07-23T08:35:14;19.80;99.90
4183;DHT22;2105;52.300;9.182;2022-07-23T08:37:41;19.40;99.90
4183;DHT22;2105;52.300;9.182;2022-07-23T08:40:08;19.40;1.00
4183;DHT22;2105;52.300;9.182;2022-07-23T08:42:35;19.40;99.90
4183;DHT22;2105;52.300;9.182;2022-07-23T08:45:03;19.70;1.00
4183;DHT22;2105;52.300;9.182;2022-07-23T08:47:30;20.10;1.00
4183;DHT22;2105;52.300;9.182;2022-07-23T08:49:58;20.30;99.90
4183;DHT22;2105;52.300;9.182;2022-07-23T08:52:26;20.30;1.00
4183;DHT22;2105;52.300;9.182;2022-07-23T08:54:53;20.60;1.00
4183;DHT22;2105;52.300;9.182;2022-07-23T08:57:20;20.90;1.00
4183;DHT22;2105;52.300;9.182;2022-07-23T08:59:47;20.90;1.00
4183;DHT22;2105;52.300;9.182;2022-07-23T09:02:14;20.80;1.00
4183;DHT22;2105;52.300;9.182;2022-07-23T09:04:40;20.60;1.00
4183;DHT22;2105;52.300;9.182;2022-07-23T09:07:09;20.30;1.00
4183;DHT22;2105;52.300;9.182;2022-07-23T09:09:35;20.10;1.00
4183;DHT22;2105;52.300;9.182;2022-07-23T09:12:03;20.20;1.00
4183;DHT22;2105;52.300;9.182;2022-07-23T09:14:38;20.40;1.00
4183;DHT22;2105;52.300;9.182;2022-07-23T09:17:09;20.60;1.00
4183;DHT22;2105;52.300;9.182;2022-07-23T09:19:36;20.70;1.00
4183;DHT22;2105;52.300;9.182;2022-07-23T09:22:18;20.40;1.00
4183;DHT22;2105;52.300;9.182;2022-07-23T09:25:04;20.30;1.00
4183;DHT22;2105;52.300;9.182;2022-07-23T09:27:49;20.60;1.00
4183;DHT22;2105;52.300;9.182;2022-07-23T09:30:17;21.00;99.90
4183;DHT22;2105;52.300;9.182;2022-07-23T09:32:44;21.60;99.90
4183;DHT22;2105;52.300;9.182;2022-07-23T09:35:11;21.50;99.90
4183;DHT22;2105;52.300;9.182;2022-07-23T09:37:39;21.60;99.90
4183;DHT22;2105;52.300;9.182;2022-07-23T09:40:07;21.60;99.90
4183;DHT22;2105;52.300;9.182;2022-07-23T09:42:37;21.30;99.90
4183;DHT22;2105;52.300;9.182;2022-07-23T09:45:10;21.60;99.90
4183;DHT22;2105;52.300;9.182;2022-07-23T09:47:37;21.70;99.90
4183;DHT22;2105;52.300;9.182;2022-07-23T09:50:06;21.80;99.90
4183;DHT22;2105;52.300;9.182;2022-07-23T09:52:37;21.40;99.90
4183;DHT22;2105;52.300;9.182;2022-07-23T09:55:10;21.20;99.90
4183;DHT22;2105;52.300;9.182;2022-07-23T09:57:37;21.00;99.90
4183;DHT22;2105;52.300;9.182;2022-07-23T10:00:08;20.70;99.90
4183;DHT22;2105;52.300;9.182;2022-07-23T10:02:36;20.30;99.90
4183;DHT22;2105;52.300;9.182;2022-07-23T10:05:04;20.30;99.90
4183;DHT22;2105;52.300;9.182;2022-07-23T10:07:33;20.40;99.90
4183;DHT22;2105;52.300;9.182;2022-07-23T10:10:01;20.40;99.90
4183;DHT22;2105;52.300;9.182;2022-07-23T10:12:29;20.50;99.90
4183;DHT22;2105;52.300;9.182;2022-07-23T10:15:15;20.90;99.90
4183;DHT22;2105;52.300;9.182;2022-07-23T10:17:42;21.40;99.90
4183;DHT22;2105;52.300;9.182;2022-07-23T10:20:09;21.90;99.90
4183;DHT22;2105;52.300;9.182;2022-07-23T10:22:40;22.30;23.50
4183;DHT22;2105;52.300;9.182;2022-07-23T10:25:12;22.60;1.00
4183;DHT22;2105;52.300;9.182;2022-07-23T10:28:04;22.80;1.00
4183;DHT22;2105;52.300;9.182;2022-07-23T10:30:38;22.50;1.00
4183;DHT22;2105;52.300;9.182;2022-07-23T10:33:20;22.20;1.00
4183;DHT22;2105;52.300;9.182;2022-07-23T10:35:56;21.80;1.00
4183;DHT22;2105;52.300;9.182;2022-07-23T10:38:27;22.00;1.00
4183;DHT22;2105;52.300;9.182;2022-07-23T10:40:58;22.20;1.00
4183;DHT22;2105;52.300;9.182;2022-07-23T10:43:28;22.50;1.00
4183;DHT22;2105;52.300;9.182;2022-07-23T10:45:55;22.40;1.00
4183;DHT22;2105;52.300;9.182;2022-07-23T10:48:23;22.10;1.00
4183;DHT22;2105;52.300;9.182;2022-07-23T10:51:08;22.00;1.00
4183;DHT22;2105;52.300;9.182;2022-07-23T10:53:57;21.90;1.00
4183;DHT22;2105;52.300;9.182;2022-07-23T10:56:51;21.90;1.00
4183;DHT22;2105;52.300;9.182;2022-07-23T10:59:31;22.30;1.00
4183;DHT22;2105;52.300;9.182;2022-07-23T11:02:22;22.60;1.00
4183;DHT22;2105;52.300;9.182;2022-07-23T11:04:50;23.00;1.00
4183;DHT22;2105;52.300;9.182;2022-07-23T11:07:17;23.20;1.00
4183;DHT22;2105;52.300;9.182;2022-07-23T11:09:44;23.10;1.00
4183;DHT22;2105;52.300;9.182;2022-07-23T11:12:32;23.10;1.00
4183;DHT22;2105;52.300;9.182;2022-07-23T11:15:04;23.30;1.00
4183;DHT22;2105;52.300;9.182;2022-07-23T11:17:33;23.30;1.00
4183;DHT22;2105;52.300;9.182;2022-07-23T11:20:20;23.60;1.00
4183;DHT22;2105;52.300;9.182;2022-07-23T11:22:52;23.90;1.00
4183;DHT22;2105;52.300;9.182;2022-07-23T11:25:33;24.10;1.00
4183;DHT22;2105;52.300;9.182;2022-07-23T11:28:14;24.20;1.00
4183;DHT22;2105;52.300;9.182;2022-07-23T11:30:44;24.30;1.00
4183;DHT22;2105;52.300;9.182;2022-07-23T11:33:19;24.20;1.00
4183;DHT22;2105;52.300;9.182;2022-07-23T11:35:47;24.10;1.00
4183;DHT22;2105;52.300;9.182;2022-07-23T11:38:17;23.90;1.00
4183;DHT22;2105;52.300;9.182;2022-07-23T11:40:46;23.70;1.00
4183;DHT22;2105;52.300;9.182;2022-07-23T11:43:13;23.60;1.00
4183;DHT22;2105;52.300;9.182;2022-07-23T11:45:43;23.50;1.00
4183;DHT22;2105;52.300;9.182;2022-07-23T11:48:17;23.60;1.00
4183;DHT22;2105;52.300;9.182;2022-07-23T11:50:44;23.80;1.00
4183;DHT22;2105;52.300;9.182;2022-07-23T11:53:11;23.80;1.00
4183;DHT22;2105;52.300;9.182;2022-07-23T11:55:38;24.00;1.00
4183;DHT22;2105;52.300;9.182;2022-07-23T11:58:05;24.30;1.00
4183;DHT22;2105;52.300;9.182;2022-07-23T12:00:32;24.40;1.00
4183;DHT22;2105;52.300;9.182;2022-07-23T12:03:01;24.60;1.00
4183;DHT22;2105;52.300;9.182;2022-07-23T12:05:30;24.60;1.00
4183;DHT22;2105;52.300;9.182;2022-07-23T12:07:58;24.70;1.00
4183;DHT22;2105;52.300;9.182;2022-07-23T12:10:28;24.70;1.00
4183;DHT22;2105;52.300;9.182;2022-07-23T12:12:57;24.60;1.00
4183;DHT22;2105;52.300;9.182;2022-07-23T12:15:27;24.10;1.00
4183;DHT22;2105;52.300;9.182;2022-07-23T12:17:56;23.90;1.00
4183;DHT22;2105;52.300;9.182;2022-07-23T12:20:27;23.70;1.00
4183;DHT22;2105;52.300;9.182;2022-07-23T12:22:56;23.80;1.00
4183;DHT22;2105;52.300;9.182;2022-07-23T12:25:26;23.70;1.00
4183;DHT22;2105;52.300;9.182;2022-07-23T12:28:03;23.70;1.00
4183;DHT22;2105;52.300;9.182;2022-07-23T12:30:32;24.00;1.00
4183;DHT22;2105;52.300;9.182;2022-07-23T12:32:59;24.20;1.00
4183;DHT22;2105;52.300;9.182;2022-07-23T12:35:33;24.30;1.00
4183;DHT22;2105;52.300;9.182;2022-07-23T12:38:03;24.40;1.00
4183;DHT22;2105;52.300;9.182;2022-07-23T12:40:32;24.50;1.00
4183;DHT22;2105;52.300;9.182;2022-07-23T12:43:02;24.30;1.00
4183;DHT22;2105;52.300;9.182;2022-07-23T12:45:42;23.80;1.00
4183;DHT22;2105;52.300;9.182;2022-07-23T12:48:16;23.70;1.00
4183;DHT22;2105;52.300;9.182;2022-07-23T12:50:53;23.60;1.00
4183;DHT22;2105;52.300;9.182;2022-07-23T12:53:22;23.40;1.00
4183;DHT22;2105;52.300;9.182;2022-07-23T12:55:50;23.10;1.00
4183;DHT22;2105;52.300;9.182;2022-07-23T12:58:18;23.20;1.00
4183;DHT22;2105;52.300;9.182;2022-07-23T13:01:01;23.40;1.00
4183;DHT22;2105;52.300;9.182;2022-07-23T13:03:31;23.80;1.00
4183;DHT22;2105;52.300;9.182;2022-07-23T13:06:01;24.40;1.00
4183;DHT22;2105;52.300;9.182;2022-07-23T13:08:29;24.60;1.00
4183;DHT22;2105;52.300;9.182;2022-07-23T13:10:56;25.00;1.00
4183;DHT22;2105;52.300;9.182;2022-07-23T13:13:24;25.30;1.00
4183;DHT22;2105;52.300;9.182;2022-07-23T13:15:52;25.50;1.00
4183;DHT22;2105;52.300;9.182;2022-07-23T13:18:19;25.30;1.00
4183;DHT22;2105;52.300;9.182;2022-07-23T13:20:47;25.30;1.00
4183;DHT22;2105;52.300;9.182;2022-07-23T13:23:16;25.30;1.00
4183;DHT22;2105;52.300;9.182;2022-07-23T13:25:43;25.50;1.00
4183;DHT22;2105;52.300;9.182;2022-07-23T13:28:10;25.70;1.00
4183;DHT22;2105;52.300;9.182;2022-07-23T13:30:36;25.50;1.00
4183;DHT22;2105;52.300;9.182;2022-07-23T13:33:04;25.40;1.00
4183;DHT22;2105;52.300;9.182;2022-07-23T13:35:31;25.50;1.00
4183;DHT22;2105;52.300;9.182;2022-07-23T13:37:58;25.50;1.00
4183;DHT22;2105;52.300;9.182;2022-07-23T13:40:26;25.40;1.00
4183;DHT22;2105;52.300;9.182;2022-07-23T13:42:53;25.40;1.00
4183;DHT22;2105;52.300;9.182;2022-07-23T13:45:19;25.40;1.00
4183;DHT22;2105;52.300;9.182;2022-07-23T13:47:46;25.30;1.00
4183;DHT22;2105;52.300;9.182;2022-07-23T13:50:13;25.20;1.00
4183;DHT22;2105;52.300;9.182;2022-07-23T13:52:41;25.30;1.00
4183;DHT22;2105;52.300;9.182;2022-07-23T13:55:08;25.50;1.00
4183;DHT22;2105;52.300;9.182;2022-07-23T13:57:36;25.40;1.00
4183;DHT22;2105;52.300;9.182;2022-07-23T14:00:05;25.50;1.00
4183;DHT22;2105;52.300;9.182;2022-07-23T14:02:32;25.60;1.00
4183;DHT22;2105;52.300;9.182;2022-07-23T14:04:59;25.50;1.00
4183;DHT22;2105;52.300;9.182;2022-07-23T14:07:26;25.60;1.00
4183;DHT22;2105;52.300;9.182;2022-07-23T14:09:52;25.70;1.00
4183;DHT22;2105;52.300;9.182;2022-07-23T14:12:19;25.60;1.00
4183;DHT22;2105;52.300;9.182;2022-07-23T14:14:47;25.30;1.00
4183;DHT22;2105;52.300;9.182;2022-07-23T14:17:14;25.10;1.00
4183;DHT22;2105;52.300;9.182;2022-07-23T14:19:40;25.20;1.00
4183;DHT22;2105;52.300;9.182;2022-07-23T14:22:07;25.00;1.00
4183;DHT22;2105;52.300;9.182;2022-07-23T14:24:34;24.70;1.00
4183;DHT22;2105;52.300;9.182;2022-07-23T14:27:01;24.60;1.00
4183;DHT22;2105;52.300;9.182;2022-07-23T14:29:28;24.20;1.00
4183;DHT22;2105;52.300;9.182;2022-07-23T14:31:57;24.10;1.00
4183;DHT22;2105;52.300;9.182;2022-07-23T14:34:24;24.40;1.00
4183;DHT22;2105;52.300;9.182;2022-07-23T14:36:51;24.70;1.00
4183;DHT22;2105;52.300;9.182;2022-07-23T14:39:17;24.90;1.00
4183;DHT22;2105;52.300;9.182;2022-07-23T14:41:44;24.90;1.00
4183;DHT22;2105;52.300;9.182;2022-07-23T14:44:11;24.90;1.00
4183;DHT22;2105;52.300;9.182;2022-07-23T14:46:38;25.10;1.00
4183;DHT22;2105;52.300;9.182;2022-07-23T14:49:06;25.10;1.00
4183;DHT22;2105;52.300;9.182;2022-07-23T14:51:33;25.00;1.00
4183;DHT22;2105;52.300;9.182;2022-07-23T14:53:59;25.10;1.00
4183;DHT22;2105;52.300;9.182;2022-07-23T14:56:26;25.10;1.00
4183;DHT22;2105;52.300;9.182;2022-07-23T14:58:53;25.30;1.00
4183;DHT22;2105;52.300;9.182;2022-07-23T15:01:21;25.20;1.00
4183;DHT22;2105;52.300;9.182;2022-07-23T15:03:47;25.10;1.00
4183;DHT22;2105;52.300;9.182;2022-07-23T15:06:16;25.10;1.00
4183;DHT22;2105;52.300;9.182;2022-07-23T15:08:43;25.00;1.00
4183;DHT22;2105;52.300;9.182;2022-07-23T15:11:09;25.10;1.00
4183;DHT22;2105;52.300;9.182;2022-07-23T15:13:36;25.10;1.00
4183;DHT22;2105;52.300;9.182;2022-07-23T15:16:03;25.10;1.00
4183;DHT22;2105;52.300;9.182;2022-07-23T15:18:30;25.30;1.00
4183;DHT22;2105;52.300;9.182;2022-07-23T15:20:57;25.50;1.00
4183;DHT22;2105;52.300;9.182;2022-07-23T15:23:25;25.30;1.00
4183;DHT22;2105;52.300;9.182;2022-07-23T15:25:53;25.00;1.00
4183;DHT22;2105;52.300;9.182;2022-07-23T15:28:21;25.00;1.00
4183;DHT22;2105;52.300;9.182;2022-07-23T15:30:48;25.20;1.00
4183;DHT22;2105;52.300;9.182;2022-07-23T15:33:15;25.60;1.00
4183;DHT22;2105;52.300;9.182;2022-07-23T15:35:41;25.80;1.00
4183;DHT22;2105;52.300;9.182;2022-07-23T15:38:08;25.70;1.00
4183;DHT22;2105;52.300;9.182;2022-07-23T15:40:36;25.40;1.00
4183;DHT22;2105;52.300;9.182;2022-07-23T15:43:03;25.30;1.00
4183;DHT22;2105;52.300;9.182;2022-07-23T15:45:30;25.30;1.00
4183;DHT22;2105;52.300;9.182;2022-07-23T15:47:57;25.30;1.00
4183;DHT22;2105;52.300;9.182;2022-07-23T15:50:24;25.20;1.00
4183;DHT22;2105;52.300;9.182;2022-07-23T15:52:50;25.20;1.00
4183;DHT22;2105;52.300;9.182;2022-07-23T15:55:17;25.20;1.00
4183;DHT22;2105;52.300;9.182;2022-07-23T15:57:46;24.80;1.00
4183;DHT22;2105;52.300;9.182;2022-07-23T16:00:13;24.40;1.00
4183;DHT22;2105;52.300;9.182;2022-07-23T16:02:39;24.10;1.00
4183;DHT22;2105;52.300;9.182;2022-07-23T16:05:06;24.20;1.00
4183;DHT22;2105;52.300;9.182;2022-07-23T16:07:33;24.40;1.00
4183;DHT22;2105;52.300;9.182;2022-07-23T16:10:03;24.60;1.00
4183;DHT22;2105;52.300;9.182;2022-07-23T16:12:30;24.70;1.00
4183;DHT22;2105;52.300;9.182;2022-07-23T16:14:58;24.90;1.00